Time;durP1;ratioP1;P1;durP2;ratioP2;P2;SDS_P1;SDS_P2;PMS_P1;PMS_P2;Temp;Humidity;BMP_temperature;BMP_pressure;BME280_temperature;BME280_humidity;BME280_pressure;Samples;Min_cycle;Max_cycle;Signal;HPM_P1;HPM_P2
2021/09/18 00:02:05;;;;;;;45.10;32.67;;;16.10;90.60;;;;;;5019195;28;20025;-84
2021/09/18 00:04:31;;;;;;;39.40;31.05;;;16.00;90.60;;;;;;5053841;28;20137;-84
2021/09/18 00:06:57;;;;;;;41.72;33.00;;;16.10;90.50;;;;;;5052992;28;20118;-84
2021/09/18 00:09:23;;;;;;;43.97;31.92;;;16.00;90.50;;;;;;5053927;28;20490;-84
2021/09/18 00:11:49;;;;;;;44.42;31.77;;;16.00;90.50;;;;;;5054180;28;20017;-84
2021/09/18 00:14:22;;;;;;;42.97;31.35;;;15.90;90.50;;;;;;5016905;28;20517;-84
2021/09/18 00:16:48;;;;;;;39.65;31.60;;;15.90;90.40;;;;;;5033045;28;20022;-83
2021/09/18 00:19:15;;;;;;;40.90;30.70;;;15.90;90.40;;;;;;5030735;28;20470;-84
2021/09/18 00:21:40;;;;;;;37.33;29.67;;;15.90;90.40;;;;;;5019629;28;20037;-84
2021/09/18 00:24:06;;;;;;;37.45;27.10;;;15.90;90.40;;;;;;5036277;28;20078;-84
2021/09/18 00:26:32;;;;;;;31.83;25.88;;;15.80;90.40;;;;;;5030976;28;20025;-84
2021/09/18 00:28:59;;;;;;;40.55;31.20;;;15.80;90.30;;;;;;5019450;28;20086;-83
2021/09/18 00:31:26;;;;;;;40.30;30.88;;;15.80;90.40;;;;;;5031555;28;20776;-83
2021/09/18 00:33:51;;;;;;;33.42;27.60;;;15.80;90.40;;;;;;5031701;28;20087;-84
2021/09/18 00:36:17;;;;;;;30.80;25.92;;;15.70;90.40;;;;;;5033894;28;20037;-84
2021/09/18 00:38:43;;;;;;;33.85;24.38;;;15.70;90.40;;;;;;5033672;28;20366;-83
2021/09/18 00:41:09;;;;;;;32.88;24.77;;;15.70;90.40;;;;;;5036195;28;20120;-83
2021/09/18 00:43:35;;;;;;;29.70;24.25;;;15.70;90.40;;;;;;5036947;28;20444;-83
2021/09/18 00:46:01;;;;;;;30.50;23.52;;;15.60;90.40;;;;;;5053521;28;20026;-84
2021/09/18 00:48:27;;;;;;;30.85;24.42;;;15.60;90.40;;;;;;5036409;28;20028;-84
2021/09/18 00:50:53;;;;;;;32.03;24.52;;;15.60;90.40;;;;;;5020181;28;20554;-83
2021/09/18 00:53:19;;;;;;;33.88;25.63;;;15.60;90.40;;;;;;5019462;28;20478;-83
2021/09/18 00:55:44;;;;;;;30.70;23.92;;;15.50;90.50;;;;;;5053998;28;20517;-84
2021/09/18 00:58:11;;;;;;;30.85;25.33;;;15.50;90.50;;;;;;5036202;28;20171;-83
2021/09/18 01:00:36;;;;;;;34.00;25.83;;;15.50;90.50;;;;;;5052955;28;20029;-83
2021/09/18 01:03:02;;;;;;;33.65;24.95;;;15.40;90.50;;;;;;5052857;28;20035;-84
2021/09/18 01:05:30;;;;;;;34.60;26.75;;;15.40;90.50;;;;;;5053049;28;20057;-83
2021/09/18 01:07:57;;;;;;;32.78;27.20;;;15.40;90.60;;;;;;5036211;28;20037;-83
2021/09/18 01:10:23;;;;;;;34.63;26.42;;;15.40;90.70;;;;;;5052699;28;20025;-83
2021/09/18 01:13:07;;;;;;;36.90;29.20;;;15.30;90.70;;;;;;5036154;28;20031;-83
2021/09/18 01:15:35;;;;;;;34.08;27.00;;;15.30;90.80;;;;;;5053886;28;20024;-83
2021/09/18 01:18:03;;;;;;;34.80;27.10;;;15.30;90.80;;;;;;5035976;28;20075;-83
2021/09/18 01:20:30;;;;;;;35.30;26.90;;;15.30;90.80;;;;;;5036015;28;20087;-83
2021/09/18 01:22:58;;;;;;;36.70;28.35;;;15.30;90.80;;;;;;5035992;28;20021;-83
2021/09/18 01:25:25;;;;;;;37.55;27.40;;;15.30;90.70;;;;;;5032641;28;20026;-83
2021/09/18 01:27:51;;;;;;;41.85;28.95;;;15.30;90.70;;;;;;5032497;28;20115;-83
2021/09/18 01:30:23;;;;;;;34.10;27.67;;;15.30;90.70;;;;;;5029007;28;20520;-83
2021/09/18 01:32:49;;;;;;;34.65;27.77;;;15.30;90.70;;;;;;5052518;28;20040;-83
2021/09/18 01:35:15;;;;;;;36.72;27.63;;;15.20;90.60;;;;;;5035984;28;20029;-83
2021/09/18 01:37:46;;;;;;;35.83;26.63;;;15.20;90.60;;;;;;5034793;28;20382;-83
2021/09/18 01:40:14;;;;;;;31.33;24.88;;;15.20;90.90;;;;;;5052538;28;20047;-83
2021/09/18 01:42:44;;;;;;;32.95;24.92;;;15.20;90.60;;;;;;5035722;28;20021;-84
2021/09/18 01:45:10;;;;;;;33.72;26.10;;;15.20;90.60;;;;;;5035637;28;20029;-83
2021/09/18 01:47:49;;;;;;;30.77;25.38;;;15.10;90.50;;;;;;5032177;28;20112;-84
2021/09/18 01:50:19;;;;;;;33.03;26.05;;;15.10;90.60;;;;;;5033596;28;20029;-83
2021/09/18 01:52:47;;;;;;;35.95;27.60;;;15.00;90.60;;;;;;5033424;28;20029;-83
2021/09/18 01:55:14;;;;;;;34.38;26.45;;;15.00;90.60;;;;;;5032204;28;20036;-83
2021/09/18 01:57:50;;;;;;;34.38;26.88;;;15.00;90.60;;;;;;5033431;28;20033;-83
2021/09/18 02:00:17;;;;;;;43.20;28.45;;;15.00;90.70;;;;;;5032355;28;20040;-83
2021/09/18 02:02:43;;;;;;;41.25;29.48;;;15.00;90.70;;;;;;5028110;28;21948;-83
2021/09/18 02:05:10;;;;;;;41.15;28.67;;;15.00;90.70;;;;;;5022996;28;20557;-83
2021/09/18 02:07:36;;;;;;;41.42;30.73;;;15.00;90.70;;;;;;5012404;28;20494;-83
2021/09/18 02:10:08;;;;;;;45.38;30.70;;;14.90;90.60;;;;;;5013576;28;20053;-83
2021/09/18 02:12:35;;;;;;;41.92;29.75;;;14.90;90.60;;;;;;5012411;28;20121;-83
2021/09/18 02:15:02;;;;;;;40.08;28.23;;;14.90;90.60;;;;;;5013380;28;20029;-83
2021/09/18 02:17:27;;;;;;;39.47;26.58;;;14.90;90.60;;;;;;5013102;28;20463;-84
2021/09/18 02:19:53;;;;;;;42.17;29.25;;;14.90;90.60;;;;;;5012231;28;20105;-83
2021/09/18 02:22:19;;;;;;;45.03;30.52;;;14.80;90.50;;;;;;4995316;28;20030;-84
2021/09/18 02:24:44;;;;;;;39.70;29.15;;;14.80;90.50;;;;;;4995036;28;20475;-83
2021/09/18 02:27:10;;;;;;;41.97;28.48;;;14.80;90.60;;;;;;4994625;28;20061;-83
2021/09/18 02:29:35;;;;;;;40.30;28.83;;;14.70;90.50;;;;;;5010921;28;20045;-83
2021/09/18 02:32:01;;;;;;;37.63;27.95;;;14.70;90.60;;;;;;5010758;28;20117;-83
2021/09/18 02:34:27;;;;;;;43.50;29.13;;;14.70;90.60;;;;;;5011532;28;20034;-83
2021/09/18 02:36:53;;;;;;;39.65;28.73;;;14.70;90.60;;;;;;5012623;28;20034;-83
2021/09/18 02:39:18;;;;;;;36.90;27.98;;;14.70;90.60;;;;;;4995285;28;20046;-83
2021/09/18 02:41:44;;;;;;;34.58;25.83;;;14.70;90.60;;;;;;5011771;28;20391;-83
2021/09/18 02:44:09;;;;;;;34.92;26.77;;;14.60;90.60;;;;;;5012399;28;20034;-83
2021/09/18 02:46:35;;;;;;;32.60;24.80;;;14.60;90.60;;;;;;5012956;28;20026;-83
2021/09/18 02:49:00;;;;;;;34.50;26.27;;;14.60;90.60;;;;;;5014628;28;20026;-83
2021/09/18 02:51:26;;;;;;;37.35;25.85;;;14.60;90.50;;;;;;5012118;28;20042;-83
2021/09/18 02:53:52;;;;;;;42.00;28.23;;;14.50;90.50;;;;;;4995908;28;20034;-83
2021/09/18 02:56:18;;;;;;;35.67;27.13;;;14.50;90.60;;;;;;5013205;28;20127;-83
2021/09/18 02:58:46;;;;;;;38.28;27.13;;;14.50;90.60;;;;;;5015283;28;20037;-83
2021/09/18 03:01:12;;;;;;;38.42;26.65;;;14.50;90.70;;;;;;5031885;28;20030;-83
2021/09/18 03:03:38;;;;;;;40.70;28.98;;;14.40;90.70;;;;;;5011013;28;20053;-83
2021/09/18 03:06:03;;;;;;;35.42;28.27;;;14.40;90.70;;;;;;5011614;28;20621;-83
2021/09/18 03:08:29;;;;;;;33.08;26.45;;;14.40;90.80;;;;;;5004308;28;20537;-83
2021/09/18 03:10:56;;;;;;;36.97;24.17;;;14.40;90.90;;;;;;5035112;28;20066;-83
2021/09/18 03:13:21;;;;;;;32.67;24.45;;;14.40;90.90;;;;;;5034716;28;20559;-83
2021/09/18 03:15:47;;;;;;;33.00;25.45;;;14.30;90.90;;;;;;5026745;28;20549;-83
2021/09/18 03:18:12;;;;;;;36.83;26.85;;;14.30;90.90;;;;;;5034962;28;20116;-83
2021/09/18 03:20:38;;;;;;;38.00;26.73;;;14.30;90.80;;;;;;5033128;28;20056;-83
2021/09/18 03:23:03;;;;;;;35.35;25.30;;;14.30;90.80;;;;;;5049053;28;20033;-83
2021/09/18 03:25:29;;;;;;;33.22;24.30;;;14.30;90.90;;;;;;5022589;28;20050;-83
2021/09/18 03:27:55;;;;;;;33.38;24.77;;;14.30;90.90;;;;;;5031312;28;20037;-83
2021/09/18 03:30:20;;;;;;;36.13;25.13;;;14.30;90.80;;;;;;5008450;28;20037;-83
2021/09/18 03:32:46;;;;;;;32.55;24.55;;;14.30;90.80;;;;;;5014639;28;20045;-83
2021/09/18 03:35:12;;;;;;;32.47;24.70;;;14.20;90.80;;;;;;5003205;28;20504;-84
2021/09/18 03:37:37;;;;;;;33.03;25.77;;;14.30;90.80;;;;;;5034417;28;20104;-83
2021/09/18 03:40:06;;;;;;;32.05;23.85;;;14.20;90.70;;;;;;5034311;28;20021;-83
2021/09/18 03:42:31;;;;;;;28.05;22.23;;;14.20;90.80;;;;;;5033054;28;20044;-83
2021/09/18 03:44:57;;;;;;;31.23;24.60;;;14.20;90.80;;;;;;5032099;28;20494;-83
2021/09/18 03:47:23;;;;;;;32.33;23.90;;;14.20;90.80;;;;;;5050826;28;20033;-83
2021/09/18 03:49:49;;;;;;;32.70;23.58;;;14.10;91.10;;;;;;5035097;28;20441;-84
2021/09/18 03:52:14;;;;;;;34.55;25.85;;;14.20;91.10;;;;;;5031259;28;20038;-83
2021/09/18 03:54:40;;;;;;;32.08;24.38;;;14.20;90.80;;;;;;5014388;28;20490;-83
2021/09/18 03:57:06;;;;;;;35.13;25.55;;;14.10;90.80;;;;;;5033125;28;20038;-83
2021/09/18 03:59:31;;;;;;;36.10;23.80;;;14.10;90.90;;;;;;5017488;28;20465;-83
2021/09/18 04:01:57;;;;;;;43.03;30.67;;;14.10;90.90;;;;;;5034859;28;20021;-83
2021/09/18 04:04:23;;;;;;;51.42;31.65;;;14.10;90.90;;;;;;5037947;28;20026;-83
2021/09/18 04:06:48;;;;;;;51.03;32.30;;;14.10;91.00;;;;;;5037363;28;20029;-83
2021/09/18 04:09:15;;;;;;;62.78;37.53;;;14.10;91.10;;;;;;5017660;28;20100;-83
2021/09/18 04:11:41;;;;;;;68.82;35.10;;;14.20;91.30;;;;;;5045394;28;20032;-83
2021/09/18 04:14:06;;;;;;;53.20;34.72;;;14.20;91.40;;;;;;5055133;28;20120;-83
2021/09/18 04:16:32;;;;;;;54.05;35.38;;;14.20;91.40;;;;;;5020803;28;20029;-83
2021/09/18 04:18:58;;;;;;;68.30;38.15;;;14.20;91.50;;;;;;5037410;28;20040;-83
2021/09/18 04:21:24;;;;;;;91.68;36.22;;;14.20;91.60;;;;;;5055016;28;20394;-83
2021/09/18 04:23:49;;;;;;;179.75;36.42;;;14.20;91.60;;;;;;5037110;28;20056;-83
2021/09/18 04:26:15;;;;;;;152.07;37.55;;;14.20;91.70;;;;;;5037103;28;20021;-83
2021/09/18 04:28:41;;;;;;;138.38;33.75;;;14.20;91.90;;;;;;5037071;28;20029;-83
2021/09/18 04:31:07;;;;;;;169.38;37.30;;;14.20;92.00;;;;;;5037215;28;20025;-83
2021/09/18 04:33:33;;;;;;;1018.65;90.63;;;14.30;92.40;;;;;;5020279;28;20037;-83
2021/09/18 04:35:59;;;;;;;180.43;34.78;;;14.30;92.10;;;;;;5036968;28;20032;-83
2021/09/18 04:38:25;;;;;;;129.82;33.65;;;14.30;92.20;;;;;;5036706;28;20532;-84
2021/09/18 04:40:50;;;;;;;160.50;37.78;;;14.30;92.20;;;;;;5053364;28;20039;-83
2021/09/18 04:43:16;;;;;;;125.15;33.30;;;14.30;92.20;;;;;;5036600;28;20032;-83
2021/09/18 04:45:42;;;;;;;253.60;36.10;;;14.30;92.30;;;;;;5054543;28;20033;-83
2021/09/18 04:48:07;;;;;;;180.05;32.92;;;14.30;92.20;;;;;;5036763;28;20026;-84
2021/09/18 04:50:33;;;;;;;174.55;33.47;;;14.30;92.30;;;;;;5032967;28;20399;-83
2021/09/18 04:52:58;;;;;;;253.27;38.95;;;14.30;92.30;;;;;;5034556;28;20429;-84
2021/09/18 04:55:24;;;;;;;138.98;32.38;;;14.30;92.30;;;;;;5016737;28;20029;-83
2021/09/18 04:57:50;;;;;;;177.57;38.35;;;14.20;92.20;;;;;;5033141;28;20044;-83
2021/09/18 05:00:15;;;;;;;153.38;34.65;;;14.20;92.30;;;;;;5016448;28;20029;-84
2021/09/18 05:02:41;;;;;;;77.82;34.47;;;14.20;92.40;;;;;;5016526;28;20076;-83
2021/09/18 05:05:07;;;;;;;83.22;34.42;;;14.20;92.40;;;;;;5047874;28;20136;-83
2021/09/18 05:07:32;;;;;;;74.45;32.90;;;14.20;92.50;;;;;;5053666;28;20036;-83
2021/09/18 05:09:58;;;;;;;174.80;36.38;;;14.20;92.40;;;;;;5036192;28;20059;-83
2021/09/18 05:12:24;;;;;;;55.40;33.88;;;14.20;92.40;;;;;;5036393;28;20029;-83
2021/09/18 05:14:49;;;;;;;65.50;36.92;;;14.20;92.30;;;;;;5036301;28;20071;-83
2021/09/18 05:17:15;;;;;;;80.55;39.28;;;14.20;92.30;;;;;;5036178;28;20029;-83
2021/09/18 05:19:41;;;;;;;92.82;39.90;;;14.30;92.30;;;;;;5036100;28;20029;-83
2021/09/18 05:22:06;;;;;;;82.72;36.25;;;14.30;92.30;;;;;;5036093;28;20025;-83
2021/09/18 05:24:32;;;;;;;75.82;37.70;;;14.30;92.30;;;;;;5019771;28;20037;-84
2021/09/18 05:26:58;;;;;;;80.82;39.13;;;14.30;92.30;;;;;;5052800;28;20059;-83
2021/09/18 05:29:23;;;;;;;94.20;43.08;;;14.30;92.40;;;;;;5036163;28;20033;-83
2021/09/18 05:31:49;;;;;;;109.82;39.83;;;14.30;92.40;;;;;;5039396;28;20140;-83
2021/09/18 05:34:15;;;;;;;111.40;39.75;;;14.30;92.40;;;;;;5016257;28;20047;-84
2021/09/18 05:36:41;;;;;;;111.10;41.00;;;14.30;92.40;;;;;;5015863;28;20029;-83
2021/09/18 05:39:06;;;;;;;117.82;35.65;;;14.30;92.40;;;;;;5016052;28;20036;-84
2021/09/18 05:41:32;;;;;;;129.63;38.70;;;14.30;92.40;;;;;;5015923;28;20053;-83
2021/09/18 05:43:57;;;;;;;55.83;32.13;;;14.30;92.30;;;;;;5043729;28;20039;-83
2021/09/18 05:46:23;;;;;;;110.05;36.72;;;14.30;92.30;;;;;;5052326;28;20107;-84
2021/09/18 05:48:49;;;;;;;105.93;37.92;;;14.30;92.20;;;;;;5035696;28;20029;-83
2021/09/18 05:51:15;;;;;;;82.22;39.17;;;14.30;92.20;;;;;;5032007;28;20112;-84
2021/09/18 05:53:40;;;;;;;145.15;39.63;;;14.30;92.20;;;;;;5032366;28;20041;-84
2021/09/18 05:56:06;;;;;;;145.90;39.85;;;14.30;92.30;;;;;;5029880;28;20513;-84
2021/09/18 05:58:31;;;;;;;172.63;38.28;;;14.30;92.30;;;;;;5051847;28;20381;-84
2021/09/18 06:00:57;;;;;;;114.03;39.95;;;14.40;92.40;;;;;;5025007;28;20079;-84
2021/09/18 06:03:23;;;;;;;106.55;38.92;;;14.40;92.40;;;;;;5020000;28;20025;-91
2021/09/18 06:05:48;;;;;;;98.90;39.58;;;14.40;92.50;;;;;;5010343;28;20053;-82
2021/09/18 06:08:14;;;;;;;59.47;35.28;;;14.40;92.50;;;;;;5017456;28;20479;-82
2021/09/18 06:10:39;;;;;;;67.13;33.45;;;14.40;92.50;;;;;;5035376;28;20032;-82
2021/09/18 06:13:05;;;;;;;47.08;33.90;;;14.50;92.50;;;;;;5035430;28;20035;-82
2021/09/18 06:15:31;;;;;;;76.07;33.15;;;14.50;92.40;;;;;;5051883;28;20112;-82
2021/09/18 06:17:56;;;;;;;67.97;34.00;;;14.50;92.40;;;;;;5051594;28;20040;-82
2021/09/18 06:20:22;;;;;;;73.53;34.10;;;14.60;92.40;;;;;;5018028;28;20033;-82
2021/09/18 06:22:48;;;;;;;71.55;33.50;;;14.60;92.40;;;;;;5016847;28;20482;-82
2021/09/18 06:25:13;;;;;;;143.75;34.45;;;14.60;92.40;;;;;;5033417;28;20025;-82
2021/09/18 06:27:43;;;;;;;154.27;36.45;;;14.60;92.30;;;;;;5034302;28;20041;-82
2021/09/18 06:30:10;;;;;;;88.88;34.80;;;14.60;92.20;;;;;;5018273;28;20056;-82
2021/09/18 06:32:36;;;;;;;85.10;35.58;;;14.60;92.20;;;;;;5034453;28;20029;-82
2021/09/18 06:35:03;;;;;;;83.80;34.92;;;14.60;92.20;;;;;;5034650;28;20532;-82
2021/09/18 06:37:28;;;;;;;70.45;36.65;;;14.60;92.20;;;;;;5034713;28;20035;-82
2021/09/18 06:39:54;;;;;;;60.17;31.38;;;14.60;92.30;;;;;;5018338;28;20029;-82
2021/09/18 06:42:19;;;;;;;45.22;28.95;;;14.60;92.30;;;;;;5018191;28;20425;-82
2021/09/18 06:44:45;;;;;;;38.63;27.23;;;14.60;92.30;;;;;;5018565;28;20026;-82
2021/09/18 06:47:12;;;;;;;55.45;32.67;;;14.70;92.30;;;;;;5035159;28;20067;-82
2021/09/18 06:49:38;;;;;;;38.85;30.13;;;14.70;92.20;;;;;;5052871;28;20021;-82
2021/09/18 06:52:05;;;;;;;48.67;31.83;;;14.70;92.10;;;;;;5052729;28;20367;-82
2021/09/18 06:54:30;;;;;;;47.03;31.48;;;14.80;92.10;;;;;;5035127;28;20482;-82
2021/09/18 06:56:56;;;;;;;39.58;30.42;;;14.80;92.00;;;;;;5034786;28;20032;-82
2021/09/18 06:59:22;;;;;;;43.63;32.72;;;14.90;92.00;;;;;;5018246;28;20033;-82
2021/09/18 07:01:48;;;;;;;44.72;33.70;;;14.90;92.00;;;;;;5034862;28;20025;-82
2021/09/18 07:04:13;;;;;;;46.83;34.30;;;14.90;92.30;;;;;;5034765;28;20070;-82
2021/09/18 07:06:39;;;;;;;43.38;30.52;;;15.00;92.00;;;;;;5018288;28;20474;-82
2021/09/18 07:09:05;;;;;;;103.32;37.60;;;15.10;92.00;;;;;;5018390;28;20090;-82
2021/09/18 07:11:30;;;;;;;58.10;38.33;;;15.20;91.90;;;;;;5034677;28;20033;-82
2021/09/18 07:13:56;;;;;;;52.08;36.08;;;15.20;91.90;;;;;;5034564;28;20079;-82
2021/09/18 07:16:22;;;;;;;56.33;35.90;;;15.20;92.00;;;;;;5034842;28;20037;-82
2021/09/18 07:18:48;;;;;;;55.25;36.88;;;15.30;92.00;;;;;;5018126;28;20033;-82
2021/09/18 07:21:14;;;;;;;52.50;35.40;;;15.40;92.10;;;;;;5034559;28;20033;-82
2021/09/18 07:23:40;;;;;;;49.92;35.85;;;15.40;92.10;;;;;;5034585;28;20417;-82
2021/09/18 07:26:06;;;;;;;65.18;39.28;;;15.50;92.00;;;;;;5052269;28;20096;-82
2021/09/18 07:28:34;;;;;;;52.55;37.38;;;15.50;92.00;;;;;;5034669;28;20116;-82
2021/09/18 07:31:00;;;;;;;55.40;38.10;;;15.60;91.90;;;;;;5018318;28;20094;-82
2021/09/18 07:33:26;;;;;;;49.72;36.30;;;15.60;91.90;;;;;;5052215;28;20105;-82
2021/09/18 07:35:51;;;;;;;60.03;39.60;;;15.70;91.90;;;;;;5053875;28;20520;-82
2021/09/18 07:38:17;;;;;;;48.25;34.40;;;15.80;91.80;;;;;;5055707;28;20052;-82
2021/09/18 07:40:43;;;;;;;54.75;37.30;;;15.90;91.80;;;;;;5037655;28;20033;-82
2021/09/18 07:43:08;;;;;;;55.63;38.75;;;16.00;91.70;;;;;;5054261;28;20025;-82
2021/09/18 07:45:34;;;;;;;60.47;38.13;;;16.00;91.70;;;;;;5020229;28;20462;-82
2021/09/18 07:48:00;;;;;;;56.50;38.55;;;16.10;91.70;;;;;;5037901;28;20033;-82
2021/09/18 07:50:25;;;;;;;61.28;42.15;;;16.30;91.70;;;;;;5037671;28;20060;-82
2021/09/18 07:52:52;;;;;;;54.38;40.08;;;16.50;91.60;;;;;;5037691;28;20032;-82
2021/09/18 07:55:18;;;;;;;49.53;34.85;;;16.70;91.40;;;;;;5037815;28;20033;-82
2021/09/18 07:57:43;;;;;;;47.97;34.33;;;16.90;91.20;;;;;;5054195;28;20039;-82
2021/09/18 08:00:09;;;;;;;52.65;39.45;;;17.00;90.90;;;;;;5055423;28;20104;-82
2021/09/18 08:02:35;;;;;;;50.78;35.30;;;17.30;90.70;;;;;;5037373;28;20389;-82
2021/09/18 08:05:04;;;;;;;52.22;38.55;;;17.40;90.40;;;;;;5037327;28;20128;-82
2021/09/18 08:07:30;;;;;;;54.63;39.22;;;17.50;90.30;;;;;;5037373;28;20048;-82
2021/09/18 08:09:56;;;;;;;47.20;33.75;;;17.70;90.20;;;;;;5055043;28;20061;-82
2021/09/18 08:12:23;;;;;;;48.22;34.92;;;17.80;90.10;;;;;;5037612;28;20060;-82
2021/09/18 08:14:50;;;;;;;55.13;37.35;;;18.00;89.70;;;;;;5055345;28;20029;-82
2021/09/18 08:17:16;;;;;;;52.05;39.03;;;18.10;89.50;;;;;;5037409;28;20068;-82
2021/09/18 08:19:42;;;;;;;49.00;36.08;;;18.20;89.30;;;;;;5037183;28;20025;-82
2021/09/18 08:22:07;;;;;;;50.30;36.50;;;18.40;89.00;;;;;;5020767;28;20032;-83
2021/09/18 08:24:33;;;;;;;49.63;34.90;;;18.50;88.60;;;;;;5037199;28;20021;-82
2021/09/18 08:26:59;;;;;;;45.75;32.22;;;18.60;88.30;;;;;;5037250;28;20094;-82
2021/09/18 08:29:25;;;;;;;48.42;35.13;;;18.80;87.90;;;;;;5037211;28;20041;-82
2021/09/18 08:31:50;;;;;;;51.58;35.83;;;18.90;88.50;;;;;;5036785;28;20029;-82
2021/09/18 08:34:16;;;;;;;45.97;33.75;;;19.00;87.60;;;;;;5020480;28;20162;-82
2021/09/18 08:36:42;;;;;;;42.38;31.38;;;19.10;87.00;;;;;;5020028;28;20052;-82
2021/09/18 08:39:07;;;;;;;46.90;34.72;;;19.30;86.60;;;;;;5054847;28;20036;-82
2021/09/18 08:41:34;;;;;;;47.97;35.13;;;19.30;86.30;;;;;;5036832;28;20025;-82
2021/09/18 08:43:59;;;;;;;42.83;31.17;;;19.50;86.30;;;;;;5036845;28;20029;-82
2021/09/18 08:46:26;;;;;;;49.03;36.33;;;19.60;86.00;;;;;;5053114;28;20070;-83
2021/09/18 08:48:53;;;;;;;47.83;35.78;;;19.60;85.70;;;;;;5053489;28;20075;-82
2021/09/18 08:51:19;;;;;;;46.45;34.95;;;19.70;85.90;;;;;;5036691;28;20389;-82
2021/09/18 08:53:45;;;;;;;49.22;36.72;;;19.80;85.90;;;;;;5020031;28;20025;-82
2021/09/18 08:56:11;;;;;;;51.20;37.10;;;19.90;85.50;;;;;;5036452;28;20036;-83
2021/09/18 08:58:36;;;;;;;47.35;34.80;;;20.00;85.40;;;;;;5032812;28;20549;-83
2021/09/18 09:01:03;;;;;;;42.42;32.00;;;20.10;85.50;;;;;;5032889;28;20033;-82
2021/09/18 09:03:34;;;;;;;45.47;33.53;;;20.20;85.20;;;;;;5015174;28;20423;-82
2021/09/18 09:06:10;;;;;;;41.15;31.20;;;20.30;84.60;;;;;;5015586;28;20092;-82
2021/09/18 09:08:38;;;;;;;43.78;31.95;;;20.40;83.90;;;;;;5015739;28;20535;-83
2021/09/18 09:11:20;;;;;;;43.05;32.20;;;20.40;84.00;;;;;;5026452;28;20037;-83
2021/09/18 09:14:18;;;;;;;43.53;34.78;;;20.50;82.70;;;;;;5033896;28;20047;-83
2021/09/18 09:17:04;;;;;;;44.22;31.60;;;20.50;82.90;;;;;;5028862;28;20563;-83
2021/09/18 09:19:38;;;;;;;40.97;30.60;;;20.60;82.70;;;;;;5053880;28;20033;-83
2021/09/18 09:22:04;;;;;;;46.03;31.50;;;20.80;81.80;;;;;;5035999;28;20035;-83
2021/09/18 09:24:30;;;;;;;42.40;32.42;;;20.70;81.30;;;;;;5036277;28;20108;-83
2021/09/18 09:27:14;;;;;;;49.58;33.03;;;20.70;81.50;;;;;;5019576;28;20025;-83
2021/09/18 09:29:54;;;;;;;43.17;31.58;;;20.80;81.40;;;;;;5053882;28;20021;-83
2021/09/18 09:32:28;;;;;;;38.47;28.20;;;20.80;81.10;;;;;;5053953;28;20036;-83
2021/09/18 09:34:55;;;;;;;35.92;28.02;;;20.90;80.80;;;;;;5053291;28;20116;-83
2021/09/18 09:37:22;;;;;;;40.53;29.77;;;20.90;79.60;;;;;;5035721;28;20026;-83
2021/09/18 09:39:57;;;;;;;39.35;27.52;;;20.80;79.90;;;;;;5035746;28;20494;-83
2021/09/18 09:42:27;;;;;;;36.80;28.73;;;20.80;80.30;;;;;;5052308;28;20493;-83
2021/09/18 09:44:53;;;;;;;34.20;26.52;;;20.90;81.30;;;;;;5053383;28;20024;-83
2021/09/18 09:47:22;;;;;;;39.05;29.48;;;21.00;79.90;;;;;;5035599;28;20029;-83
2021/09/18 09:49:53;;;;;;;36.38;28.23;;;21.00;79.00;;;;;;5031757;28;20021;-83
2021/09/18 09:52:24;;;;;;;34.35;26.80;;;21.00;79.00;;;;;;5032590;28;20083;-83
2021/09/18 09:54:58;;;;;;;37.00;27.73;;;21.00;79.90;;;;;;5033557;28;20026;-83
2021/09/18 09:57:23;;;;;;;35.75;25.85;;;21.10;80.00;;;;;;5015489;28;20028;-83
2021/09/18 09:59:57;;;;;;;32.35;24.60;;;21.10;78.70;;;;;;5015355;28;20029;-83
2021/09/18 10:02:23;;;;;;;28.88;22.23;;;21.20;79.30;;;;;;5016172;28;20068;-83
2021/09/18 10:04:50;;;;;;;32.00;24.02;;;21.40;78.70;;;;;;5050127;28;20044;-83
2021/09/18 10:07:16;;;;;;;34.55;25.20;;;21.50;78.30;;;;;;5053247;28;20025;-83
2021/09/18 10:09:43;;;;;;;34.75;24.35;;;21.60;77.00;;;;;;5052237;28;20083;-84
2021/09/18 10:12:12;;;;;;;28.60;22.33;;;21.60;77.40;;;;;;5035542;28;20108;-83
2021/09/18 10:14:47;;;;;;;30.92;22.67;;;21.60;76.40;;;;;;5034975;28;20029;-83
2021/09/18 10:17:15;;;;;;;28.70;21.92;;;21.60;76.60;;;;;;5034928;28;20060;-83
2021/09/18 10:25:16;;;;;;;23.25;15.55;;;21.70;74.70;;;;;;5051461;28;20036;-83
2021/09/18 10:28:09;;;;;;;21.60;16.08;;;21.70;73.70;;;;;;5033358;28;20115;-83
2021/09/18 10:30:56;;;;;;;22.90;16.55;;;21.90;74.10;;;;;;5034922;28;20033;-83
2021/09/18 10:33:35;;;;;;;19.77;13.00;;;22.00;72.50;;;;;;5052143;28;20037;-83
2021/09/18 10:36:10;;;;;;;16.80;11.98;;;22.10;72.60;;;;;;5052670;28;20028;-84
2021/09/18 10:38:46;;;;;;;10.02;7.53;;;22.10;72.50;;;;;;5034204;28;20029;-83
2021/09/18 10:41:17;;;;;;;12.23;7.38;;;22.20;70.30;;;;;;5050384;28;20063;-83
2021/09/18 10:43:54;;;;;;;11.88;8.13;;;22.30;70.30;;;;;;5050835;28;20028;-84
2021/09/18 10:46:44;;;;;;;12.48;8.15;;;22.40;69.40;;;;;;5034901;28;20052;-83
2021/09/18 10:49:35;;;;;;;11.27;7.07;;;22.50;68.60;;;;;;5052594;28;20029;-83
2021/09/18 10:52:28;;;;;;;10.13;7.13;;;22.60;68.90;;;;;;5052463;28;20430;-83
2021/09/18 10:55:10;;;;;;;11.30;7.88;;;22.60;67.70;;;;;;5034589;28;20029;-83
2021/09/18 10:57:36;;;;;;;10.55;8.18;;;22.70;66.90;;;;;;5014540;28;20048;-84
2021/09/18 11:00:12;;;;;;;12.98;9.20;;;22.60;66.70;;;;;;5031002;28;20036;-83
2021/09/18 11:02:44;;;;;;;10.18;8.20;;;22.50;66.70;;;;;;5032278;28;20128;-84
2021/09/18 11:05:36;;;;;;;11.48;8.05;;;22.40;67.40;;;;;;5031316;28;20128;-83
2021/09/18 11:08:23;;;;;;;13.88;9.98;;;22.30;68.50;;;;;;5031990;28;20026;-84
2021/09/18 11:10:53;;;;;;;13.00;9.75;;;22.40;68.20;;;;;;5020298;28;20120;-84
2021/09/18 11:13:24;;;;;;;14.18;8.93;;;22.50;68.10;;;;;;5038273;28;20166;-84
2021/09/18 11:15:58;;;;;;;14.32;10.13;;;22.60;68.00;;;;;;5038505;28;20029;-84
2021/09/18 11:18:30;;;;;;;16.73;9.68;;;22.70;68.40;;;;;;5034359;28;20030;-84
2021/09/18 11:21:12;;;;;;;12.20;8.35;;;22.80;68.20;;;;;;5034694;28;20500;-83
2021/09/18 11:23:43;;;;;;;12.85;8.70;;;22.80;67.20;;;;;;5035964;28;20029;-84
2021/09/18 11:26:47;;;;;;;9.45;7.60;;;22.80;66.20;;;;;;5018451;28;20482;-84
2021/09/18 11:29:19;;;;;;;8.52;5.13;;;22.80;65.40;;;;;;5031139;28;20029;-84
2021/09/18 11:31:59;;;;;;;6.55;3.65;;;22.70;65.20;;;;;;5055664;28;20028;-84
2021/09/18 11:34:27;;;;;;;5.18;3.53;;;22.80;64.30;;;;;;5055641;28;20362;-84
2021/09/18 11:36:55;;;;;;;5.35;3.20;;;22.80;65.10;;;;;;5055910;28;20080;-84
2021/09/18 11:39:54;;;;;;;5.38;3.70;;;22.90;65.30;;;;;;5037460;28;20028;-84
2021/09/18 11:42:32;;;;;;;5.70;3.33;;;22.80;63.60;;;;;;5021526;28;20033;-84
2021/09/18 11:45:07;;;;;;;4.70;3.40;;;22.80;62.90;;;;;;5054728;28;20021;-84
2021/09/18 11:47:38;;;;;;;5.20;3.05;;;22.80;62.90;;;;;;5054735;28;20263;-84
2021/09/18 11:50:31;;;;;;;4.40;3.95;;;22.80;63.80;;;;;;5054911;28;20095;-84
2021/09/18 11:53:00;;;;;;;4.60;3.80;;;22.80;63.80;;;;;;5029742;28;20048;-84
2021/09/18 11:55:28;;;;;;;6.38;4.50;;;22.90;64.10;;;;;;5035709;28;20026;-84
2021/09/18 11:58:28;;;;;;;6.32;4.78;;;22.80;64.20;;;;;;5035384;28;20036;-84
2021/09/18 12:00:59;;;;;;;6.60;4.78;;;22.80;64.80;;;;;;5014315;28;20135;-84
2021/09/18 12:03:29;;;;;;;8.18;4.50;;;22.70;64.70;;;;;;5053567;28;20092;-84
2021/09/18 12:06:06;;;;;;;7.50;5.55;;;22.70;65.50;;;;;;5035870;28;20120;-84
2021/09/18 12:08:34;;;;;;;7.30;4.95;;;22.80;64.50;;;;;;5055421;28;20021;-84
2021/09/18 12:11:09;;;;;;;5.75;4.00;;;22.70;64.20;;;;;;5037511;28;20032;-84
2021/09/18 12:13:38;;;;;;;5.82;3.75;;;22.70;63.10;;;;;;5055314;28;20025;-84
2021/09/18 12:16:05;;;;;;;3.83;3.30;;;22.70;62.90;;;;;;5037700;28;20112;-84
2021/09/18 12:18:37;;;;;;;5.57;3.45;;;22.70;62.80;;;;;;5055262;28;20104;-84
2021/09/18 12:21:28;;;;;;;6.22;3.72;;;22.70;61.70;;;;;;5036496;28;20033;-84
2021/09/18 12:24:00;;;;;;;4.45;3.72;;;22.70;62.60;;;;;;5037365;28;20025;-84
2021/09/18 12:26:35;;;;;;;3.97;3.15;;;22.80;62.20;;;;;;5055235;28;20078;-84
2021/09/18 12:29:10;;;;;;;5.38;3.72;;;22.90;62.10;;;;;;5037425;28;20028;-84
2021/09/18 12:31:37;;;;;;;6.50;3.50;;;23.00;61.90;;;;;;5037152;28;20029;-84
2021/09/18 12:34:17;;;;;;;6.53;3.88;;;23.00;61.30;;;;;;5037148;28;20029;-84
2021/09/18 12:36:44;;;;;;;5.43;4.05;;;23.20;60.40;;;;;;5037022;28;20029;-84
2021/09/18 12:39:11;;;;;;;6.90;4.32;;;23.20;61.80;;;;;;5054717;28;20025;-84
2021/09/18 12:41:39;;;;;;;7.03;4.25;;;23.30;62.40;;;;;;5053800;28;20021;-84